sensor_id;sensor_type;location;lat;lon;timestamp;P1;durP1;ratioP1;P2;durP2;ratioP2
41061;SDS011;26812;42.662;23.352;2023-03-07T00:00:56;14.85;;;7.85;;
41061;SDS011;26812;42.662;23.352;2023-03-07T00:03:22;12.18;;;7.13;;
41061;SDS011;26812;42.662;23.352;2023-03-07T00:05:47;13.40;;;7.78;;
41061;SDS011;26812;42.662;23.352;2023-03-07T00:08:12;12.98;;;7.93;;
41061;SDS011;26812;42.662;23.352;2023-03-07T00:10:38;15.00;;;8.50;;
41061;SDS011;26812;42.662;23.352;2023-03-07T00:13:03;12.85;;;8.00;;
41061;SDS011;26812;42.662;23.352;2023-03-07T00:15:29;12.52;;;7.68;;
41061;SDS011;26812;42.662;23.352;2023-03-07T00:17:55;9.95;;;6.65;;
41061;SDS011;26812;42.662;23.352;2023-03-07T00:20:21;13.00;;;8.57;;
41061;SDS011;26812;42.662;23.352;2023-03-07T00:22:46;12.88;;;8.85;;
41061;SDS011;26812;42.662;23.352;2023-03-07T00:25:12;13.18;;;7.32;;
41061;SDS011;26812;42.662;23.352;2023-03-07T00:27:39;14.40;;;9.35;;
41061;SDS011;26812;42.662;23.352;2023-03-07T00:30:05;12.55;;;8.13;;
41061;SDS011;26812;42.662;23.352;2023-03-07T00:32:31;14.43;;;8.70;;
41061;SDS011;26812;42.662;23.352;2023-03-07T00:34:56;13.68;;;8.23;;
41061;SDS011;26812;42.662;23.352;2023-03-07T00:37:23;14.02;;;8.30;;
41061;SDS011;26812;42.662;23.352;2023-03-07T00:39:49;15.20;;;8.45;;
41061;SDS011;26812;42.662;23.352;2023-03-07T00:42:14;12.15;;;7.82;;
41061;SDS011;26812;42.662;23.352;2023-03-07T00:44:40;12.65;;;8.10;;
41061;SDS011;26812;42.662;23.352;2023-03-07T00:47:06;15.82;;;8.57;;
41061;SDS011;26812;42.662;23.352;2023-03-07T00:49:32;8.38;;;6.70;;
41061;SDS011;26812;42.662;23.352;2023-03-07T00:52:03;10.77;;;7.28;;
41061;SDS011;26812;42.662;23.352;2023-03-07T00:54:29;10.77;;;7.82;;
41061;SDS011;26812;42.662;23.352;2023-03-07T00:56:54;13.80;;;8.38;;
41061;SDS011;26812;42.662;23.352;2023-03-07T00:59:20;12.07;;;8.13;;
41061;SDS011;26812;42.662;23.352;2023-03-07T01:01:45;13.40;;;8.35;;
41061;SDS011;26812;42.662;23.352;2023-03-07T01:04:11;10.25;;;7.75;;
41061;SDS011;26812;42.662;23.352;2023-03-07T01:06:36;11.75;;;7.70;;
41061;SDS011;26812;42.662;23.352;2023-03-07T01:09:03;13.00;;;8.40;;
41061;SDS011;26812;42.662;23.352;2023-03-07T01:11:31;11.05;;;7.38;;
41061;SDS011;26812;42.662;23.352;2023-03-07T01:13:58;12.07;;;7.03;;
41061;SDS011;26812;42.662;23.352;2023-03-07T01:16:25;13.85;;;8.00;;
41061;SDS011;26812;42.662;23.352;2023-03-07T01:18:56;12.05;;;7.93;;
41061;SDS011;26812;42.662;23.352;2023-03-07T01:23:50;11.23;;;7.15;;
41061;SDS011;26812;42.662;23.352;2023-03-07T01:26:16;13.38;;;6.95;;
41061;SDS011;26812;42.662;23.352;2023-03-07T01:28:44;10.90;;;6.25;;
41061;SDS011;26812;42.662;23.352;2023-03-07T01:31:10;9.18;;;6.20;;
41061;SDS011;26812;42.662;23.352;2023-03-07T01:33:36;9.73;;;6.60;;
41061;SDS011;26812;42.662;23.352;2023-03-07T01:36:02;12.77;;;6.80;;
41061;SDS011;26812;42.662;23.352;2023-03-07T01:38:28;8.90;;;6.63;;
41061;SDS011;26812;42.662;23.352;2023-03-07T01:40:58;9.77;;;7.00;;
41061;SDS011;26812;42.662;23.352;2023-03-07T01:48:15;10.48;;;7.10;;
41061;SDS011;26812;42.662;23.352;2023-03-07T01:50:41;9.52;;;7.05;;
41061;SDS011;26812;42.662;23.352;2023-03-07T01:53:08;8.38;;;5.88;;
41061;SDS011;26812;42.662;23.352;2023-03-07T01:55:34;8.55;;;5.95;;
41061;SDS011;26812;42.662;23.352;2023-03-07T01:58:08;7.85;;;5.38;;
41061;SDS011;26812;42.662;23.352;2023-03-07T02:00:37;10.68;;;6.93;;
41061;SDS011;26812;42.662;23.352;2023-03-07T02:05:35;7.78;;;5.72;;
41061;SDS011;26812;42.662;23.352;2023-03-07T02:08:03;9.07;;;6.13;;
41061;SDS011;26812;42.662;23.352;2023-03-07T02:10:31;8.60;;;6.68;;
41061;SDS011;26812;42.662;23.352;2023-03-07T02:12:57;8.65;;;5.80;;
41061;SDS011;26812;42.662;23.352;2023-03-07T02:15:23;8.15;;;6.28;;
41061;SDS011;26812;42.662;23.352;2023-03-07T02:17:48;8.65;;;6.30;;
41061;SDS011;26812;42.662;23.352;2023-03-07T02:23:58;9.85;;;6.53;;
41061;SDS011;26812;42.662;23.352;2023-03-07T02:28:56;9.93;;;6.30;;
41061;SDS011;26812;42.662;23.352;2023-03-07T02:31:26;8.57;;;6.55;;
41061;SDS011;26812;42.662;23.352;2023-03-07T02:33:51;7.50;;;5.85;;
41061;SDS011;26812;42.662;23.352;2023-03-07T02:36:23;10.38;;;6.28;;
41061;SDS011;26812;42.662;23.352;2023-03-07T02:38:53;8.98;;;5.72;;
41061;SDS011;26812;42.662;23.352;2023-03-07T02:41:21;9.30;;;6.38;;
41061;SDS011;26812;42.662;23.352;2023-03-07T02:43:50;7.90;;;6.38;;
41061;SDS011;26812;42.662;23.352;2023-03-07T02:46:15;9.68;;;6.55;;
41061;SDS011;26812;42.662;23.352;2023-03-07T02:48:41;9.10;;;6.93;;
41061;SDS011;26812;42.662;23.352;2023-03-07T02:51:07;8.40;;;6.18;;
41061;SDS011;26812;42.662;23.352;2023-03-07T02:53:32;9.30;;;6.68;;
41061;SDS011;26812;42.662;23.352;2023-03-07T02:55:57;9.48;;;6.85;;
41061;SDS011;26812;42.662;23.352;2023-03-07T02:58:23;8.57;;;6.30;;
41061;SDS011;26812;42.662;23.352;2023-03-07T03:00:48;9.52;;;6.55;;
41061;SDS011;26812;42.662;23.352;2023-03-07T03:03:14;8.70;;;7.03;;
41061;SDS011;26812;42.662;23.352;2023-03-07T03:05:39;8.75;;;6.10;;
41061;SDS011;26812;42.662;23.352;2023-03-07T03:08:04;8.80;;;5.55;;
41061;SDS011;26812;42.662;23.352;2023-03-07T03:10:30;9.02;;;6.22;;
41061;SDS011;26812;42.662;23.352;2023-03-07T03:12:56;9.00;;;6.03;;
41061;SDS011;26812;42.662;23.352;2023-03-07T03:15:21;9.63;;;6.90;;
41061;SDS011;26812;42.662;23.352;2023-03-07T03:17:47;11.32;;;6.43;;
41061;SDS011;26812;42.662;23.352;2023-03-07T03:20:13;11.23;;;7.00;;
41061;SDS011;26812;42.662;23.352;2023-03-07T03:22:41;9.10;;;5.97;;
41061;SDS011;26812;42.662;23.352;2023-03-07T03:25:13;9.27;;;6.30;;
41061;SDS011;26812;42.662;23.352;2023-03-07T03:27:39;8.20;;;5.72;;
41061;SDS011;26812;42.662;23.352;2023-03-07T03:30:06;10.25;;;6.53;;
41061;SDS011;26812;42.662;23.352;2023-03-07T03:32:38;8.13;;;5.47;;
41061;SDS011;26812;42.662;23.352;2023-03-07T03:35:05;9.27;;;5.63;;
41061;SDS011;26812;42.662;23.352;2023-03-07T03:37:31;11.02;;;6.70;;
41061;SDS011;26812;42.662;23.352;2023-03-07T03:39:56;10.40;;;5.90;;
41061;SDS011;26812;42.662;23.352;2023-03-07T03:42:22;7.63;;;5.78;;
41061;SDS011;26812;42.662;23.352;2023-03-07T03:44:47;12.95;;;6.75;;
41061;SDS011;26812;42.662;23.352;2023-03-07T03:47:13;10.10;;;6.05;;
41061;SDS011;26812;42.662;23.352;2023-03-07T03:49:39;11.93;;;6.00;;
41061;SDS011;26812;42.662;23.352;2023-03-07T03:52:05;8.57;;;5.63;;
41061;SDS011;26812;42.662;23.352;2023-03-07T03:54:30;8.05;;;5.90;;
41061;SDS011;26812;42.662;23.352;2023-03-07T03:56:55;8.23;;;6.03;;
41061;SDS011;26812;42.662;23.352;2023-03-07T03:59:21;10.35;;;7.05;;
41061;SDS011;26812;42.662;23.352;2023-03-07T04:01:47;13.07;;;6.50;;
41061;SDS011;26812;42.662;23.352;2023-03-07T04:04:12;10.60;;;6.45;;
41061;SDS011;26812;42.662;23.352;2023-03-07T04:06:38;13.30;;;6.45;;
41061;SDS011;26812;42.662;23.352;2023-03-07T04:09:03;9.07;;;6.20;;
41061;SDS011;26812;42.662;23.352;2023-03-07T04:11:29;9.52;;;6.80;;
41061;SDS011;26812;42.662;23.352;2023-03-07T04:13:54;8.15;;;5.95;;
41061;SDS011;26812;42.662;23.352;2023-03-07T04:16:20;9.82;;;5.95;;
41061;SDS011;26812;42.662;23.352;2023-03-07T04:18:46;8.75;;;6.00;;
41061;SDS011;26812;42.662;23.352;2023-03-07T04:21:14;9.10;;;6.90;;
41061;SDS011;26812;42.662;23.352;2023-03-07T04:23:39;9.73;;;6.13;;
41061;SDS011;26812;42.662;23.352;2023-03-07T04:26:06;10.43;;;5.97;;
41061;SDS011;26812;42.662;23.352;2023-03-07T04:28:34;10.88;;;7.13;;
41061;SDS011;26812;42.662;23.352;2023-03-07T04:31:11;10.68;;;6.85;;
41061;SDS011;26812;42.662;23.352;2023-03-07T04:33:41;10.35;;;7.10;;
41061;SDS011;26812;42.662;23.352;2023-03-07T04:36:14;8.68;;;7.15;;
41061;SDS011;26812;42.662;23.352;2023-03-07T04:38:40;9.10;;;7.00;;
41061;SDS011;26812;42.662;23.352;2023-03-07T04:41:06;9.98;;;7.32;;
41061;SDS011;26812;42.662;23.352;2023-03-07T04:43:33;9.85;;;6.95;;
41061;SDS011;26812;42.662;23.352;2023-03-07T04:45:58;13.73;;;7.60;;
41061;SDS011;26812;42.662;23.352;2023-03-07T04:48:24;10.05;;;6.95;;
41061;SDS011;26812;42.662;23.352;2023-03-07T04:50:50;11.60;;;7.60;;
41061;SDS011;26812;42.662;23.352;2023-03-07T04:53:16;11.38;;;7.88;;
41061;SDS011;26812;42.662;23.352;2023-03-07T04:55:43;10.63;;;7.53;;
41061;SDS011;26812;42.662;23.352;2023-03-07T04:58:09;11.85;;;6.88;;
41061;SDS011;26812;42.662;23.352;2023-03-07T05:00:46;10.57;;;7.05;;
41061;SDS011;26812;42.662;23.352;2023-03-07T05:03:12;11.70;;;6.72;;
41061;SDS011;26812;42.662;23.352;2023-03-07T05:05:38;10.65;;;8.00;;
41061;SDS011;26812;42.662;23.352;2023-03-07T05:08:04;12.68;;;7.38;;
41061;SDS011;26812;42.662;23.352;2023-03-07T05:10:30;10.98;;;7.80;;
41061;SDS011;26812;42.662;23.352;2023-03-07T05:12:56;15.32;;;7.82;;
41061;SDS011;26812;42.662;23.352;2023-03-07T05:15:21;11.20;;;7.60;;
41061;SDS011;26812;42.662;23.352;2023-03-07T05:17:47;10.70;;;8.38;;
41061;SDS011;26812;42.662;23.352;2023-03-07T05:20:12;11.25;;;7.57;;
41061;SDS011;26812;42.662;23.352;2023-03-07T05:22:38;11.43;;;7.90;;
41061;SDS011;26812;42.662;23.352;2023-03-07T05:25:03;19.08;;;8.63;;
41061;SDS011;26812;42.662;23.352;2023-03-07T05:27:29;11.85;;;8.00;;
41061;SDS011;26812;42.662;23.352;2023-03-07T05:29:55;12.15;;;7.88;;
41061;SDS011;26812;42.662;23.352;2023-03-07T05:32:20;13.30;;;8.45;;
41061;SDS011;26812;42.662;23.352;2023-03-07T05:34:45;12.50;;;7.97;;
41061;SDS011;26812;42.662;23.352;2023-03-07T05:37:12;14.50;;;8.52;;
41061;SDS011;26812;42.662;23.352;2023-03-07T05:39:37;15.73;;;9.45;;
41061;SDS011;26812;42.662;23.352;2023-03-07T05:42:03;14.07;;;8.55;;
41061;SDS011;26812;42.662;23.352;2023-03-07T05:44:28;14.82;;;8.18;;
41061;SDS011;26812;42.662;23.352;2023-03-07T05:46:54;15.35;;;9.45;;
41061;SDS011;26812;42.662;23.352;2023-03-07T05:49:22;16.80;;;9.52;;
41061;SDS011;26812;42.662;23.352;2023-03-07T05:51:49;12.90;;;9.00;;
41061;SDS011;26812;42.662;23.352;2023-03-07T05:54:14;13.48;;;8.52;;
41061;SDS011;26812;42.662;23.352;2023-03-07T05:56:40;14.50;;;9.35;;
41061;SDS011;26812;42.662;23.352;2023-03-07T05:59:05;14.70;;;10.13;;
41061;SDS011;26812;42.662;23.352;2023-03-07T06:01:32;17.70;;;8.65;;
41061;SDS011;26812;42.662;23.352;2023-03-07T06:03:58;15.70;;;8.95;;
41061;SDS011;26812;42.662;23.352;2023-03-07T06:06:23;13.60;;;8.82;;
41061;SDS011;26812;42.662;23.352;2023-03-07T06:08:49;14.60;;;8.98;;
41061;SDS011;26812;42.662;23.352;2023-03-07T06:11:14;15.75;;;8.95;;
41061;SDS011;26812;42.662;23.352;2023-03-07T06:13:40;11.82;;;8.68;;
41061;SDS011;26812;42.662;23.352;2023-03-07T06:16:05;12.50;;;8.43;;
41061;SDS011;26812;42.662;23.352;2023-03-07T06:18:31;14.55;;;8.65;;
41061;SDS011;26812;42.662;23.352;2023-03-07T06:20:57;11.02;;;7.80;;
41061;SDS011;26812;42.662;23.352;2023-03-07T06:23:24;15.55;;;9.60;;
41061;SDS011;26812;42.662;23.352;2023-03-07T06:25:51;16.35;;;8.40;;
41061;SDS011;26812;42.662;23.352;2023-03-07T06:28:17;14.45;;;8.63;;
41061;SDS011;26812;42.662;23.352;2023-03-07T06:30:42;14.38;;;8.50;;
41061;SDS011;26812;42.662;23.352;2023-03-07T06:33:08;13.00;;;7.57;;
41061;SDS011;26812;42.662;23.352;2023-03-07T06:35:33;12.80;;;7.25;;
41061;SDS011;26812;42.662;23.352;2023-03-07T06:38:02;11.32;;;7.47;;
41061;SDS011;26812;42.662;23.352;2023-03-07T06:40:27;13.25;;;8.20;;
41061;SDS011;26812;42.662;23.352;2023-03-07T06:42:52;10.88;;;7.85;;
41061;SDS011;26812;42.662;23.352;2023-03-07T06:45:18;13.30;;;7.60;;
41061;SDS011;26812;42.662;23.352;2023-03-07T06:47:43;9.23;;;6.95;;
41061;SDS011;26812;42.662;23.352;2023-03-07T06:50:09;13.88;;;8.00;;
41061;SDS011;26812;42.662;23.352;2023-03-07T06:52:35;15.10;;;8.20;;
41061;SDS011;26812;42.662;23.352;2023-03-07T06:55:00;10.50;;;7.97;;
41061;SDS011;26812;42.662;23.352;2023-03-07T06:57:26;14.75;;;6.47;;
41061;SDS011;26812;42.662;23.352;2023-03-07T06:59:54;9.25;;;6.85;;
41061;SDS011;26812;42.662;23.352;2023-03-07T07:02:20;11.00;;;7.35;;
41061;SDS011;26812;42.662;23.352;2023-03-07T07:04:45;11.50;;;6.82;;
41061;SDS011;26812;42.662;23.352;2023-03-07T07:07:11;9.43;;;6.80;;
41061;SDS011;26812;42.662;23.352;2023-03-07T07:09:36;10.98;;;6.85;;
41061;SDS011;26812;42.662;23.352;2023-03-07T07:12:01;11.38;;;7.60;;
41061;SDS011;26812;42.662;23.352;2023-03-07T07:14:28;12.32;;;7.55;;
41061;SDS011;26812;42.662;23.352;2023-03-07T07:16:54;9.95;;;7.13;;
41061;SDS011;26812;42.662;23.352;2023-03-07T07:19:19;13.40;;;7.72;;
41061;SDS011;26812;42.662;23.352;2023-03-07T07:21:45;9.20;;;6.80;;
41061;SDS011;26812;42.662;23.352;2023-03-07T07:24:11;14.38;;;7.82;;
41061;SDS011;26812;42.662;23.352;2023-03-07T07:26:37;10.43;;;7.18;;
41061;SDS011;26812;42.662;23.352;2023-03-07T07:29:02;11.00;;;8.25;;
41061;SDS011;26812;42.662;23.352;2023-03-07T07:31:28;11.18;;;7.55;;
41061;SDS011;26812;42.662;23.352;2023-03-07T07:33:54;11.50;;;7.28;;
41061;SDS011;26812;42.662;23.352;2023-03-07T07:36:19;9.00;;;6.22;;
41061;SDS011;26812;42.662;23.352;2023-03-07T07:38:45;10.02;;;6.70;;
41061;SDS011;26812;42.662;23.352;2023-03-07T07:41:10;10.05;;;6.38;;
41061;SDS011;26812;42.662;23.352;2023-03-07T07:43:36;9.75;;;6.30;;
41061;SDS011;26812;42.662;23.352;2023-03-07T07:46:02;10.57;;;6.40;;
41061;SDS011;26812;42.662;23.352;2023-03-07T07:48:29;7.68;;;5.68;;
41061;SDS011;26812;42.662;23.352;2023-03-07T07:50:58;9.65;;;5.72;;
41061;SDS011;26812;42.662;23.352;2023-03-07T07:53:24;10.20;;;6.50;;
41061;SDS011;26812;42.662;23.352;2023-03-07T07:55:50;9.82;;;5.78;;
41061;SDS011;26812;42.662;23.352;2023-03-07T07:58:15;8.73;;;5.85;;
41061;SDS011;26812;42.662;23.352;2023-03-07T08:00:40;8.50;;;5.97;;
41061;SDS011;26812;42.662;23.352;2023-03-07T08:03:06;9.13;;;5.38;;
41061;SDS011;26812;42.662;23.352;2023-03-07T08:05:31;6.78;;;5.13;;
41061;SDS011;26812;42.662;23.352;2023-03-07T08:07:59;10.13;;;5.75;;
41061;SDS011;26812;42.662;23.352;2023-03-07T08:10:25;9.48;;;5.55;;
41061;SDS011;26812;42.662;23.352;2023-03-07T08:12:50;7.68;;;4.95;;
41061;SDS011;26812;42.662;23.352;2023-03-07T08:15:16;8.85;;;6.03;;
41061;SDS011;26812;42.662;23.352;2023-03-07T08:17:42;9.52;;;5.60;;
41061;SDS011;26812;42.662;23.352;2023-03-07T08:20:08;6.95;;;5.50;;
41061;SDS011;26812;42.662;23.352;2023-03-07T08:22:37;8.88;;;5.88;;
41061;SDS011;26812;42.662;23.352;2023-03-07T08:25:03;9.93;;;6.00;;
41061;SDS011;26812;42.662;23.352;2023-03-07T08:27:32;11.55;;;6.20;;
41061;SDS011;26812;42.662;23.352;2023-03-07T08:29:59;11.32;;;6.38;;
41061;SDS011;26812;42.662;23.352;2023-03-07T08:32:25;8.90;;;6.32;;
41061;SDS011;26812;42.662;23.352;2023-03-07T08:34:55;12.30;;;7.15;;
41061;SDS011;26812;42.662;23.352;2023-03-07T08:37:20;8.40;;;5.93;;
41061;SDS011;26812;42.662;23.352;2023-03-07T08:39:45;8.82;;;5.88;;
41061;SDS011;26812;42.662;23.352;2023-03-07T08:42:11;9.65;;;6.43;;
41061;SDS011;26812;42.662;23.352;2023-03-07T08:44:37;8.43;;;6.30;;
41061;SDS011;26812;42.662;23.352;2023-03-07T08:47:02;8.88;;;5.75;;
41061;SDS011;26812;42.662;23.352;2023-03-07T08:49:27;8.57;;;5.55;;
41061;SDS011;26812;42.662;23.352;2023-03-07T08:51:53;8.70;;;6.07;;
41061;SDS011;26812;42.662;23.352;2023-03-07T08:54:18;10.88;;;5.55;;
41061;SDS011;26812;42.662;23.352;2023-03-07T08:56:43;8.80;;;5.88;;
41061;SDS011;26812;42.662;23.352;2023-03-07T08:59:09;13.77;;;6.70;;
41061;SDS011;26812;42.662;23.352;2023-03-07T09:01:34;9.27;;;6.65;;
41061;SDS011;26812;42.662;23.352;2023-03-07T09:04:00;8.10;;;5.53;;
41061;SDS011;26812;42.662;23.352;2023-03-07T09:06:25;9.35;;;6.55;;
41061;SDS011;26812;42.662;23.352;2023-03-07T09:08:51;8.15;;;5.57;;
41061;SDS011;26812;42.662;23.352;2023-03-07T09:11:17;7.72;;;5.43;;
41061;SDS011;26812;42.662;23.352;2023-03-07T09:13:43;6.32;;;4.70;;
41061;SDS011;26812;42.662;23.352;2023-03-07T09:16:09;8.57;;;5.50;;
41061;SDS011;26812;42.662;23.352;2023-03-07T09:18:34;8.23;;;6.15;;
41061;SDS011;26812;42.662;23.352;2023-03-07T09:21:00;8.32;;;5.13;;
41061;SDS011;26812;42.662;23.352;2023-03-07T09:23:27;9.50;;;5.32;;
41061;SDS011;26812;42.662;23.352;2023-03-07T09:25:53;7.75;;;5.05;;
41061;SDS011;26812;42.662;23.352;2023-03-07T09:28:18;8.68;;;5.78;;
41061;SDS011;26812;42.662;23.352;2023-03-07T09:30:44;8.85;;;5.32;;
41061;SDS011;26812;42.662;23.352;2023-03-07T09:33:09;10.40;;;5.85;;
41061;SDS011;26812;42.662;23.352;2023-03-07T09:35:36;5.80;;;5.20;;
41061;SDS011;26812;42.662;23.352;2023-03-07T09:38:02;6.82;;;4.88;;
41061;SDS011;26812;42.662;23.352;2023-03-07T09:40:28;9.43;;;5.13;;
41061;SDS011;26812;42.662;23.352;2023-03-07T09:43:07;8.00;;;4.85;;
41061;SDS011;26812;42.662;23.352;2023-03-07T09:48:50;8.38;;;5.03;;
41061;SDS011;26812;42.662;23.352;2023-03-07T09:51:22;7.78;;;4.50;;
41061;SDS011;26812;42.662;23.352;2023-03-07T09:53:52;6.45;;;4.30;;
41061;SDS011;26812;42.662;23.352;2023-03-07T09:56:24;6.38;;;4.47;;
41061;SDS011;26812;42.662;23.352;2023-03-07T09:59:02;4.25;;;3.38;;
41061;SDS011;26812;42.662;23.352;2023-03-07T10:01:36;6.15;;;3.40;;
41061;SDS011;26812;42.662;23.352;2023-03-07T10:04:04;6.35;;;3.67;;
41061;SDS011;26812;42.662;23.352;2023-03-07T10:06:38;5.45;;;3.03;;
41061;SDS011;26812;42.662;23.352;2023-03-07T10:12:08;5.13;;;3.75;;
41061;SDS011;26812;42.662;23.352;2023-03-07T10:26:02;6.60;;;2.60;;
41061;SDS011;26812;42.662;23.352;2023-03-07T10:28:34;5.43;;;2.70;;
41061;SDS011;26812;42.662;23.352;2023-03-07T10:33:41;2.80;;;2.50;;
41061;SDS011;26812;42.662;23.352;2023-03-07T10:36:34;2.80;;;2.40;;
41061;SDS011;26812;42.662;23.352;2023-03-07T10:39:01;3.78;;;2.90;;
41061;SDS011;26812;42.662;23.352;2023-03-07T10:41:27;4.22;;;2.53;;
41061;SDS011;26812;42.662;23.352;2023-03-07T10:43:53;11.07;;;2.47;;
41061;SDS011;26812;42.662;23.352;2023-03-07T10:46:25;4.30;;;2.30;;
41061;SDS011;26812;42.662;23.352;2023-03-07T10:48:54;3.47;;;2.50;;
41061;SDS011;26812;42.662;23.352;2023-03-07T10:51:42;4.15;;;2.67;;
41061;SDS011;26812;42.662;23.352;2023-03-07T10:54:12;3.67;;;2.22;;
41061;SDS011;26812;42.662;23.352;2023-03-07T10:56:40;3.42;;;2.53;;
41061;SDS011;26812;42.662;23.352;2023-03-07T10:59:06;5.25;;;2.90;;
41061;SDS011;26812;42.662;23.352;2023-03-07T11:01:34;5.90;;;2.72;;
41061;SDS011;26812;42.662;23.352;2023-03-07T11:11:49;5.30;;;2.60;;
41061;SDS011;26812;42.662;23.352;2023-03-07T11:14:20;5.88;;;2.45;;
41061;SDS011;26812;42.662;23.352;2023-03-07T11:19:36;3.03;;;2.45;;
41061;SDS011;26812;42.662;23.352;2023-03-07T11:22:15;7.53;;;3.15;;
41061;SDS011;26812;42.662;23.352;2023-03-07T11:27:21;3.05;;;2.20;;
41061;SDS011;26812;42.662;23.352;2023-03-07T11:32:52;4.65;;;2.67;;
41061;SDS011;26812;42.662;23.352;2023-03-07T11:36:12;2.40;;;2.15;;
41061;SDS011;26812;42.662;23.352;2023-03-07T11:38:14;3.80;;;3.05;;
41061;SDS011;26812;42.662;23.352;2023-03-07T11:40:50;2.60;;;2.17;;
41061;SDS011;26812;42.662;23.352;2023-03-07T11:49:20;4.20;;;2.15;;
41061;SDS011;26812;42.662;23.352;2023-03-07T11:57:19;2.83;;;1.48;;
41061;SDS011;26812;42.662;23.352;2023-03-07T12:00:02;2.80;;;1.50;;
41061;SDS011;26812;42.662;23.352;2023-03-07T12:05:35;1.60;;;1.17;;
41061;SDS011;26812;42.662;23.352;2023-03-07T12:16:35;1.95;;;1.13;;
41061;SDS011;26812;42.662;23.352;2023-03-07T12:24:25;1.40;;;1.03;;
41061;SDS011;26812;42.662;23.352;2023-03-07T12:32:23;1.38;;;1.00;;
41061;SDS011;26812;42.662;23.352;2023-03-07T12:37:41;3.25;;;1.27;;
41061;SDS011;26812;42.662;23.352;2023-03-07T12:40:22;4.40;;;1.27;;
41061;SDS011;26812;42.662;23.352;2023-03-07T12:42:58;1.27;;;1.00;;
41061;SDS011;26812;42.662;23.352;2023-03-07T12:52:02;1.50;;;1.10;;
41061;SDS011;26812;42.662;23.352;2023-03-07T12:54:36;1.05;;;0.82;;
41061;SDS011;26812;42.662;23.352;2023-03-07T12:57:10;2.53;;;1.00;;
41061;SDS011;26812;42.662;23.352;2023-03-07T12:59:41;2.83;;;1.27;;
41061;SDS011;26812;42.662;23.352;2023-03-07T13:02:15;1.35;;;1.15;;
41061;SDS011;26812;42.662;23.352;2023-03-07T13:04:46;2.45;;;1.52;;
41061;SDS011;26812;42.662;23.352;2023-03-07T13:07:12;1.65;;;1.00;;
41061;SDS011;26812;42.662;23.352;2023-03-07T13:09:52;1.45;;;1.13;;
41061;SDS011;26812;42.662;23.352;2023-03-07T13:14:52;2.70;;;1.15;;
41061;SDS011;26812;42.662;23.352;2023-03-07T13:37:59;0.98;;;0.93;;
41061;SDS011;26812;42.662;23.352;2023-03-07T13:56:09;1.40;;;1.30;;
41061;SDS011;26812;42.662;23.352;2023-03-07T14:01:21;2.97;;;1.70;;
41061;SDS011;26812;42.662;23.352;2023-03-07T14:06:38;2.25;;;1.65;;
41061;SDS011;26812;42.662;23.352;2023-03-07T14:09:07;1.40;;;1.30;;
41061;SDS011;26812;42.662;23.352;2023-03-07T14:19:53;1.80;;;1.60;;
41061;SDS011;26812;42.662;23.352;2023-03-07T14:22:23;3.13;;;1.60;;
41061;SDS011;26812;42.662;23.352;2023-03-07T14:25:00;2.20;;;1.70;;
41061;SDS011;26812;42.662;23.352;2023-03-07T14:27:55;2.45;;;1.52;;
41061;SDS011;26812;42.662;23.352;2023-03-07T14:30:26;3.90;;;2.53;;
41061;SDS011;26812;42.662;23.352;2023-03-07T14:32:54;2.42;;;1.80;;
41061;SDS011;26812;42.662;23.352;2023-03-07T14:52:13;5.65;;;1.90;;
41061;SDS011;26812;42.662;23.352;2023-03-07T14:54:42;2.65;;;1.70;;
41061;SDS011;26812;42.662;23.352;2023-03-07T14:57:17;3.30;;;2.67;;
41061;SDS011;26812;42.662;23.352;2023-03-07T15:02:28;2.70;;;1.90;;
41061;SDS011;26812;42.662;23.352;2023-03-07T15:04:54;3.63;;;1.85;;
41061;SDS011;26812;42.662;23.352;2023-03-07T15:07:19;3.10;;;1.75;;
41061;SDS011;26812;42.662;23.352;2023-03-07T15:09:46;1.85;;;1.73;;
41061;SDS011;26812;42.662;23.352;2023-03-07T15:14:43;3.95;;;2.00;;
41061;SDS011;26812;42.662;23.352;2023-03-07T15:19:46;2.30;;;2.10;;
41061;SDS011;26812;42.662;23.352;2023-03-07T15:22:29;25.25;;;11.82;;
41061;SDS011;26812;42.662;23.352;2023-03-07T15:25:03;3.72;;;1.83;;
41061;SDS011;26812;42.662;23.352;2023-03-07T15:27:46;4.03;;;2.15;;
41061;SDS011;26812;42.662;23.352;2023-03-07T15:30:25;3.65;;;2.60;;
41061;SDS011;26812;42.662;23.352;2023-03-07T15:33:15;3.15;;;2.22;;
41061;SDS011;26812;42.662;23.352;2023-03-07T15:38:38;3.85;;;2.17;;
41061;SDS011;26812;42.662;23.352;2023-03-07T15:46:39;5.05;;;2.13;;
41061;SDS011;26812;42.662;23.352;2023-03-07T15:49:15;3.03;;;1.67;;
41061;SDS011;26812;42.662;23.352;2023-03-07T15:51:48;3.33;;;2.00;;
41061;SDS011;26812;42.662;23.352;2023-03-07T15:54:20;2.20;;;1.90;;
41061;SDS011;26812;42.662;23.352;2023-03-07T15:56:55;4.45;;;3.10;;
41061;SDS011;26812;42.662;23.352;2023-03-07T15:59:32;2.65;;;2.22;;
41061;SDS011;26812;42.662;23.352;2023-03-07T16:04:44;3.20;;;2.08;;
41061;SDS011;26812;42.662;23.352;2023-03-07T16:07:15;2.35;;;1.77;;
41061;SDS011;26812;42.662;23.352;2023-03-07T16:09:42;3.05;;;1.90;;
41061;SDS011;26812;42.662;23.352;2023-03-07T16:12:17;5.57;;;2.78;;
41061;SDS011;26812;42.662;23.352;2023-03-07T16:14:45;6.80;;;2.65;;
41061;SDS011;26812;42.662;23.352;2023-03-07T16:17:16;3.38;;;2.00;;
41061;SDS011;26812;42.662;23.352;2023-03-07T16:19:45;3.92;;;2.17;;
41061;SDS011;26812;42.662;23.352;2023-03-07T16:22:17;4.32;;;2.28;;
41061;SDS011;26812;42.662;23.352;2023-03-07T16:24:43;2.75;;;2.15;;
41061;SDS011;26812;42.662;23.352;2023-03-07T16:27:13;2.70;;;2.45;;
41061;SDS011;26812;42.662;23.352;2023-03-07T16:29:40;4.07;;;2.63;;
41061;SDS011;26812;42.662;23.352;2023-03-07T16:32:09;3.20;;;2.65;;
41061;SDS011;26812;42.662;23.352;2023-03-07T16:34:44;4.70;;;2.50;;
41061;SDS011;26812;42.662;23.352;2023-03-07T16:37:10;2.10;;;1.88;;
41061;SDS011;26812;42.662;23.352;2023-03-07T16:39:37;3.53;;;2.20;;
41061;SDS011;26812;42.662;23.352;2023-03-07T16:42:03;4.30;;;2.58;;
41061;SDS011;26812;42.662;23.352;2023-03-07T16:44:37;4.03;;;2.50;;
41061;SDS011;26812;42.662;23.352;2023-03-07T16:47:14;2.30;;;2.08;;
41061;SDS011;26812;42.662;23.352;2023-03-07T16:49:41;4.38;;;2.95;;
41061;SDS011;26812;42.662;23.352;2023-03-07T16:52:10;6.82;;;3.13;;
41061;SDS011;26812;42.662;23.352;2023-03-07T16:54:37;3.72;;;2.97;;
41061;SDS011;26812;42.662;23.352;2023-03-07T16:57:02;5.65;;;2.80;;
41061;SDS011;26812;42.662;23.352;2023-03-07T16:59:33;6.55;;;3.22;;
41061;SDS011;26812;42.662;23.352;2023-03-07T17:02:01;5.90;;;2.80;;
41061;SDS011;26812;42.662;23.352;2023-03-07T17:04:37;6.03;;;3.05;;
41061;SDS011;26812;42.662;23.352;2023-03-07T17:07:02;3.58;;;2.78;;
41061;SDS011;26812;42.662;23.352;2023-03-07T17:09:28;4.20;;;2.72;;
41061;SDS011;26812;42.662;23.352;2023-03-07T17:11:53;6.28;;;3.67;;
41061;SDS011;26812;42.662;23.352;2023-03-07T17:14:19;4.05;;;2.70;;
41061;SDS011;26812;42.662;23.352;2023-03-07T17:16:45;4.95;;;3.83;;
41061;SDS011;26812;42.662;23.352;2023-03-07T17:19:30;2.80;;;2.17;;
41061;SDS011;26812;42.662;23.352;2023-03-07T17:21:57;2.92;;;2.65;;
41061;SDS011;26812;42.662;23.352;2023-03-07T17:24:24;2.40;;;2.00;;
41061;SDS011;26812;42.662;23.352;2023-03-07T17:26:51;3.00;;;2.70;;
41061;SDS011;26812;42.662;23.352;2023-03-07T17:29:32;3.38;;;2.30;;
41061;SDS011;26812;42.662;23.352;2023-03-07T17:32:02;15.65;;;3.58;;
41061;SDS011;26812;42.662;23.352;2023-03-07T17:34:30;6.63;;;2.78;;
41061;SDS011;26812;42.662;23.352;2023-03-07T17:36:57;3.60;;;2.22;;